sensor_id;sensor_type;location;lat;lon;timestamp;P1;durP1;ratioP1;P2;durP2;ratioP2
4895;SDS011;2463;49.948;8.472;2023-07-29T00:01:22;92.10;;;7.25;;
4895;SDS011;2463;49.948;8.472;2023-07-29T00:03:49;91.88;;;7.35;;
4895;SDS011;2463;49.948;8.472;2023-07-29T00:06:15;92.55;;;7.53;;
4895;SDS011;2463;49.948;8.472;2023-07-29T00:08:42;94.20;;;7.75;;
4895;SDS011;2463;49.948;8.472;2023-07-29T00:11:09;94.05;;;7.75;;
4895;SDS011;2463;49.948;8.472;2023-07-29T00:13:35;91.35;;;6.65;;
4895;SDS011;2463;49.948;8.472;2023-07-29T00:16:02;91.72;;;6.57;;
4895;SDS011;2463;49.948;8.472;2023-07-29T00:18:29;90.65;;;6.57;;
4895;SDS011;2463;49.948;8.472;2023-07-29T00:20:56;94.15;;;7.35;;
4895;SDS011;2463;49.948;8.472;2023-07-29T00:23:23;93.88;;;7.72;;
4895;SDS011;2463;49.948;8.472;2023-07-29T00:25:50;91.28;;;6.78;;
4895;SDS011;2463;49.948;8.472;2023-07-29T00:28:17;92.90;;;6.97;;
4895;SDS011;2463;49.948;8.472;2023-07-29T00:30:48;92.30;;;7.18;;
4895;SDS011;2463;49.948;8.472;2023-07-29T00:33:15;96.30;;;7.03;;
4895;SDS011;2463;49.948;8.472;2023-07-29T00:35:41;89.90;;;6.22;;
4895;SDS011;2463;49.948;8.472;2023-07-29T00:38:08;90.53;;;6.20;;
4895;SDS011;2463;49.948;8.472;2023-07-29T00:40:35;89.38;;;5.85;;
4895;SDS011;2463;49.948;8.472;2023-07-29T00:43:03;90.32;;;6.22;;
4895;SDS011;2463;49.948;8.472;2023-07-29T00:45:30;90.00;;;5.57;;
4895;SDS011;2463;49.948;8.472;2023-07-29T00:47:59;89.40;;;6.15;;
4895;SDS011;2463;49.948;8.472;2023-07-29T00:50:26;88.97;;;5.47;;
4895;SDS011;2463;49.948;8.472;2023-07-29T00:52:55;91.03;;;6.07;;
4895;SDS011;2463;49.948;8.472;2023-07-29T00:55:23;89.75;;;5.63;;
4895;SDS011;2463;49.948;8.472;2023-07-29T00:57:53;90.25;;;6.10;;
4895;SDS011;2463;49.948;8.472;2023-07-29T01:00:21;90.75;;;6.43;;
4895;SDS011;2463;49.948;8.472;2023-07-29T01:02:48;88.68;;;5.18;;
4895;SDS011;2463;49.948;8.472;2023-07-29T01:05:16;88.80;;;5.60;;
4895;SDS011;2463;49.948;8.472;2023-07-29T01:10:30;89.45;;;5.65;;
4895;SDS011;2463;49.948;8.472;2023-07-29T01:13:23;87.28;;;4.60;;
4895;SDS011;2463;49.948;8.472;2023-07-29T01:16:14;89.22;;;5.05;;
4895;SDS011;2463;49.948;8.472;2023-07-29T01:18:47;91.75;;;4.50;;
4895;SDS011;2463;49.948;8.472;2023-07-29T01:21:16;89.28;;;5.05;;
4895;SDS011;2463;49.948;8.472;2023-07-29T01:23:43;88.63;;;5.05;;
4895;SDS011;2463;49.948;8.472;2023-07-29T01:26:10;88.03;;;5.20;;
4895;SDS011;2463;49.948;8.472;2023-07-29T01:28:37;87.28;;;4.47;;
4895;SDS011;2463;49.948;8.472;2023-07-29T01:31:10;88.22;;;4.72;;
4895;SDS011;2463;49.948;8.472;2023-07-29T01:33:48;88.38;;;4.85;;
4895;SDS011;2463;49.948;8.472;2023-07-29T01:36:25;89.63;;;5.18;;
4895;SDS011;2463;49.948;8.472;2023-07-29T01:38:55;87.07;;;4.10;;
4895;SDS011;2463;49.948;8.472;2023-07-29T01:41:23;87.15;;;4.65;;
4895;SDS011;2463;49.948;8.472;2023-07-29T01:43:51;87.65;;;4.90;;
4895;SDS011;2463;49.948;8.472;2023-07-29T01:46:19;87.10;;;4.28;;
4895;SDS011;2463;49.948;8.472;2023-07-29T01:48:46;88.68;;;4.60;;
4895;SDS011;2463;49.948;8.472;2023-07-29T01:51:13;88.75;;;4.97;;
4895;SDS011;2463;49.948;8.472;2023-07-29T01:53:39;88.43;;;4.55;;
4895;SDS011;2463;49.948;8.472;2023-07-29T01:56:06;87.78;;;4.38;;
4895;SDS011;2463;49.948;8.472;2023-07-29T01:58:33;86.70;;;4.30;;
4895;SDS011;2463;49.948;8.472;2023-07-29T02:01:00;86.72;;;4.30;;
4895;SDS011;2463;49.948;8.472;2023-07-29T02:03:26;88.18;;;4.50;;
4895;SDS011;2463;49.948;8.472;2023-07-29T02:05:54;86.93;;;4.25;;
4895;SDS011;2463;49.948;8.472;2023-07-29T02:08:20;88.10;;;4.35;;
4895;SDS011;2463;49.948;8.472;2023-07-29T02:10:47;86.65;;;4.53;;
4895;SDS011;2463;49.948;8.472;2023-07-29T02:13:15;87.72;;;4.47;;
4895;SDS011;2463;49.948;8.472;2023-07-29T02:15:42;88.63;;;4.85;;
4895;SDS011;2463;49.948;8.472;2023-07-29T02:18:09;87.80;;;4.70;;
4895;SDS011;2463;49.948;8.472;2023-07-29T02:20:35;88.78;;;4.43;;
4895;SDS011;2463;49.948;8.472;2023-07-29T02:23:02;87.07;;;4.65;;
4895;SDS011;2463;49.948;8.472;2023-07-29T02:25:29;86.57;;;4.55;;
4895;SDS011;2463;49.948;8.472;2023-07-29T02:27:56;87.78;;;4.68;;
4895;SDS011;2463;49.948;8.472;2023-07-29T02:30:22;90.20;;;6.28;;
4895;SDS011;2463;49.948;8.472;2023-07-29T02:32:49;87.13;;;4.53;;
4895;SDS011;2463;49.948;8.472;2023-07-29T02:35:17;87.65;;;4.63;;
4895;SDS011;2463;49.948;8.472;2023-07-29T02:37:44;89.18;;;4.60;;
4895;SDS011;2463;49.948;8.472;2023-07-29T02:40:11;86.97;;;4.30;;
4895;SDS011;2463;49.948;8.472;2023-07-29T02:42:37;93.50;;;5.80;;
4895;SDS011;2463;49.948;8.472;2023-07-29T02:45:04;89.38;;;5.22;;
4895;SDS011;2463;49.948;8.472;2023-07-29T02:47:36;89.55;;;5.45;;
4895;SDS011;2463;49.948;8.472;2023-07-29T02:50:04;90.88;;;5.15;;
4895;SDS011;2463;49.948;8.472;2023-07-29T02:52:31;88.43;;;5.20;;
4895;SDS011;2463;49.948;8.472;2023-07-29T02:54:58;88.93;;;5.22;;
4895;SDS011;2463;49.948;8.472;2023-07-29T02:57:24;90.05;;;5.35;;
4895;SDS011;2463;49.948;8.472;2023-07-29T02:59:51;88.63;;;5.10;;
4895;SDS011;2463;49.948;8.472;2023-07-29T03:02:18;89.75;;;5.35;;
4895;SDS011;2463;49.948;8.472;2023-07-29T03:04:44;94.03;;;6.10;;
4895;SDS011;2463;49.948;8.472;2023-07-29T03:07:13;91.38;;;6.25;;
4895;SDS011;2463;49.948;8.472;2023-07-29T03:09:40;89.63;;;5.43;;
4895;SDS011;2463;49.948;8.472;2023-07-29T03:12:08;90.55;;;5.93;;
4895;SDS011;2463;49.948;8.472;2023-07-29T03:14:34;89.07;;;5.60;;
4895;SDS011;2463;49.948;8.472;2023-07-29T03:17:04;88.93;;;5.85;;
4895;SDS011;2463;49.948;8.472;2023-07-29T03:19:31;89.32;;;5.60;;
4895;SDS011;2463;49.948;8.472;2023-07-29T03:21:58;88.78;;;4.90;;
4895;SDS011;2463;49.948;8.472;2023-07-29T03:24:25;88.97;;;5.03;;
4895;SDS011;2463;49.948;8.472;2023-07-29T03:26:51;88.82;;;5.07;;
4895;SDS011;2463;49.948;8.472;2023-07-29T03:29:18;90.43;;;5.32;;
4895;SDS011;2463;49.948;8.472;2023-07-29T03:31:45;89.22;;;5.00;;
4895;SDS011;2463;49.948;8.472;2023-07-29T03:34:11;88.32;;;4.80;;
4895;SDS011;2463;49.948;8.472;2023-07-29T03:36:38;88.47;;;4.90;;
4895;SDS011;2463;49.948;8.472;2023-07-29T03:39:05;89.47;;;5.07;;
4895;SDS011;2463;49.948;8.472;2023-07-29T03:41:33;88.18;;;4.63;;
4895;SDS011;2463;49.948;8.472;2023-07-29T03:44:00;87.55;;;4.32;;
4895;SDS011;2463;49.948;8.472;2023-07-29T03:46:27;87.05;;;4.40;;
4895;SDS011;2463;49.948;8.472;2023-07-29T03:48:54;91.32;;;4.93;;
4895;SDS011;2463;49.948;8.472;2023-07-29T03:51:20;87.97;;;4.70;;
4895;SDS011;2463;49.948;8.472;2023-07-29T03:53:48;88.03;;;4.53;;
4895;SDS011;2463;49.948;8.472;2023-07-29T03:56:15;89.05;;;5.10;;
4895;SDS011;2463;49.948;8.472;2023-07-29T03:58:42;89.38;;;4.70;;
4895;SDS011;2463;49.948;8.472;2023-07-29T04:01:10;87.55;;;4.50;;
4895;SDS011;2463;49.948;8.472;2023-07-29T04:03:36;90.97;;;4.95;;
4895;SDS011;2463;49.948;8.472;2023-07-29T04:06:03;87.82;;;4.50;;
4895;SDS011;2463;49.948;8.472;2023-07-29T04:08:30;89.05;;;4.97;;
4895;SDS011;2463;49.948;8.472;2023-07-29T04:10:57;88.07;;;4.65;;
4895;SDS011;2463;49.948;8.472;2023-07-29T04:13:23;88.72;;;4.82;;
4895;SDS011;2463;49.948;8.472;2023-07-29T04:15:50;87.57;;;4.60;;
4895;SDS011;2463;49.948;8.472;2023-07-29T04:18:17;90.60;;;5.72;;
4895;SDS011;2463;49.948;8.472;2023-07-29T04:20:44;88.05;;;4.47;;
4895;SDS011;2463;49.948;8.472;2023-07-29T04:23:10;87.65;;;4.30;;
4895;SDS011;2463;49.948;8.472;2023-07-29T04:25:37;87.90;;;4.72;;
4895;SDS011;2463;49.948;8.472;2023-07-29T04:28:04;88.10;;;4.80;;
4895;SDS011;2463;49.948;8.472;2023-07-29T04:30:31;88.85;;;5.03;;
4895;SDS011;2463;49.948;8.472;2023-07-29T04:32:58;87.22;;;4.50;;
4895;SDS011;2463;49.948;8.472;2023-07-29T04:35:24;88.18;;;4.72;;
4895;SDS011;2463;49.948;8.472;2023-07-29T04:37:51;88.70;;;4.55;;
4895;SDS011;2463;49.948;8.472;2023-07-29T04:40:18;88.85;;;4.80;;
4895;SDS011;2463;49.948;8.472;2023-07-29T04:42:45;90.32;;;4.60;;
4895;SDS011;2463;49.948;8.472;2023-07-29T04:45:12;89.25;;;5.45;;
4895;SDS011;2463;49.948;8.472;2023-07-29T04:47:39;87.95;;;4.90;;
4895;SDS011;2463;49.948;8.472;2023-07-29T04:50:05;88.38;;;4.57;;
4895;SDS011;2463;49.948;8.472;2023-07-29T04:52:33;88.82;;;4.88;;
4895;SDS011;2463;49.948;8.472;2023-07-29T04:54:59;88.82;;;4.80;;
4895;SDS011;2463;49.948;8.472;2023-07-29T04:57:26;87.53;;;4.45;;
4895;SDS011;2463;49.948;8.472;2023-07-29T04:59:53;87.68;;;4.70;;
4895;SDS011;2463;49.948;8.472;2023-07-29T05:02:20;87.57;;;4.55;;
4895;SDS011;2463;49.948;8.472;2023-07-29T05:04:47;87.18;;;4.15;;
4895;SDS011;2463;49.948;8.472;2023-07-29T05:07:14;87.70;;;4.53;;
4895;SDS011;2463;49.948;8.472;2023-07-29T05:09:40;88.88;;;4.80;;
4895;SDS011;2463;49.948;8.472;2023-07-29T05:12:07;88.05;;;4.75;;
4895;SDS011;2463;49.948;8.472;2023-07-29T05:14:34;87.95;;;4.72;;
4895;SDS011;2463;49.948;8.472;2023-07-29T05:17:01;88.07;;;4.68;;
4895;SDS011;2463;49.948;8.472;2023-07-29T05:19:28;89.95;;;5.40;;
4895;SDS011;2463;49.948;8.472;2023-07-29T05:21:55;88.72;;;4.72;;
4895;SDS011;2463;49.948;8.472;2023-07-29T05:24:22;88.72;;;4.72;;
4895;SDS011;2463;49.948;8.472;2023-07-29T05:26:49;89.88;;;5.10;;
4895;SDS011;2463;49.948;8.472;2023-07-29T05:29:16;88.53;;;4.55;;
4895;SDS011;2463;49.948;8.472;2023-07-29T05:31:42;87.72;;;4.57;;
4895;SDS011;2463;49.948;8.472;2023-07-29T05:34:09;90.03;;;5.90;;
4895;SDS011;2463;49.948;8.472;2023-07-29T05:36:36;89.40;;;4.93;;
4895;SDS011;2463;49.948;8.472;2023-07-29T05:39:04;88.43;;;4.90;;
4895;SDS011;2463;49.948;8.472;2023-07-29T05:41:30;87.90;;;4.95;;
4895;SDS011;2463;49.948;8.472;2023-07-29T05:43:57;88.72;;;5.10;;
4895;SDS011;2463;49.948;8.472;2023-07-29T05:46:24;88.35;;;4.90;;
4895;SDS011;2463;49.948;8.472;2023-07-29T05:48:50;89.63;;;4.93;;
4895;SDS011;2463;49.948;8.472;2023-07-29T05:51:17;89.00;;;5.35;;
4895;SDS011;2463;49.948;8.472;2023-07-29T05:53:44;90.00;;;5.47;;
4895;SDS011;2463;49.948;8.472;2023-07-29T05:56:10;87.22;;;4.68;;
4895;SDS011;2463;49.948;8.472;2023-07-29T05:58:37;88.13;;;4.60;;
4895;SDS011;2463;49.948;8.472;2023-07-29T06:01:04;87.72;;;4.63;;
4895;SDS011;2463;49.948;8.472;2023-07-29T06:03:31;89.45;;;5.03;;
4895;SDS011;2463;49.948;8.472;2023-07-29T06:05:58;88.72;;;4.93;;
4895;SDS011;2463;49.948;8.472;2023-07-29T06:08:25;88.22;;;4.65;;
4895;SDS011;2463;49.948;8.472;2023-07-29T06:10:54;88.80;;;4.30;;
4895;SDS011;2463;49.948;8.472;2023-07-29T06:13:21;90.13;;;4.88;;
4895;SDS011;2463;49.948;8.472;2023-07-29T06:15:47;88.35;;;4.90;;
4895;SDS011;2463;49.948;8.472;2023-07-29T06:18:14;87.38;;;4.60;;
4895;SDS011;2463;49.948;8.472;2023-07-29T06:20:41;92.43;;;6.55;;
4895;SDS011;2463;49.948;8.472;2023-07-29T06:23:08;90.03;;;5.25;;
4895;SDS011;2463;49.948;8.472;2023-07-29T06:25:35;88.50;;;5.22;;
4895;SDS011;2463;49.948;8.472;2023-07-29T06:28:01;87.95;;;4.60;;
4895;SDS011;2463;49.948;8.472;2023-07-29T06:30:28;88.90;;;4.55;;
4895;SDS011;2463;49.948;8.472;2023-07-29T06:32:55;87.40;;;5.05;;
4895;SDS011;2463;49.948;8.472;2023-07-29T06:35:21;88.03;;;5.20;;
4895;SDS011;2463;49.948;8.472;2023-07-29T06:37:48;86.72;;;4.60;;
4895;SDS011;2463;49.948;8.472;2023-07-29T06:40:15;87.57;;;4.53;;
4895;SDS011;2463;49.948;8.472;2023-07-29T06:42:42;87.53;;;5.00;;
4895;SDS011;2463;49.948;8.472;2023-07-29T06:45:08;87.90;;;4.82;;
4895;SDS011;2463;49.948;8.472;2023-07-29T06:47:36;89.10;;;5.00;;
4895;SDS011;2463;49.948;8.472;2023-07-29T06:50:03;88.45;;;5.20;;
4895;SDS011;2463;49.948;8.472;2023-07-29T06:52:30;87.88;;;4.50;;
4895;SDS011;2463;49.948;8.472;2023-07-29T06:54:57;89.63;;;4.80;;
4895;SDS011;2463;49.948;8.472;2023-07-29T06:57:23;88.65;;;5.20;;
4895;SDS011;2463;49.948;8.472;2023-07-29T06:59:50;89.70;;;5.25;;
4895;SDS011;2463;49.948;8.472;2023-07-29T07:02:17;87.68;;;5.00;;
4895;SDS011;2463;49.948;8.472;2023-07-29T07:04:43;87.90;;;5.10;;
4895;SDS011;2463;49.948;8.472;2023-07-29T07:07:10;88.35;;;4.90;;
4895;SDS011;2463;49.948;8.472;2023-07-29T07:09:37;89.05;;;4.72;;
4895;SDS011;2463;49.948;8.472;2023-07-29T07:12:04;88.05;;;5.32;;
4895;SDS011;2463;49.948;8.472;2023-07-29T07:14:31;87.78;;;4.63;;
4895;SDS011;2463;49.948;8.472;2023-07-29T07:16:58;88.28;;;5.10;;
4895;SDS011;2463;49.948;8.472;2023-07-29T07:19:24;87.93;;;5.22;;
4895;SDS011;2463;49.948;8.472;2023-07-29T07:21:51;87.63;;;4.95;;
4895;SDS011;2463;49.948;8.472;2023-07-29T07:24:18;87.53;;;4.85;;
4895;SDS011;2463;49.948;8.472;2023-07-29T07:26:44;89.88;;;5.22;;
4895;SDS011;2463;49.948;8.472;2023-07-29T07:29:11;87.63;;;5.30;;
4895;SDS011;2463;49.948;8.472;2023-07-29T07:31:38;87.22;;;5.10;;
4895;SDS011;2463;49.948;8.472;2023-07-29T07:34:04;88.07;;;5.28;;
4895;SDS011;2463;49.948;8.472;2023-07-29T07:36:31;87.35;;;4.60;;
4895;SDS011;2463;49.948;8.472;2023-07-29T07:38:58;88.80;;;5.70;;
4895;SDS011;2463;49.948;8.472;2023-07-29T07:41:25;88.47;;;5.18;;
4895;SDS011;2463;49.948;8.472;2023-07-29T07:43:51;87.28;;;4.85;;
4895;SDS011;2463;49.948;8.472;2023-07-29T07:46:18;88.25;;;4.93;;
4895;SDS011;2463;49.948;8.472;2023-07-29T07:48:45;86.53;;;4.32;;
4895;SDS011;2463;49.948;8.472;2023-07-29T07:51:12;87.47;;;4.82;;
4895;SDS011;2463;49.948;8.472;2023-07-29T07:53:39;86.38;;;4.60;;
4895;SDS011;2463;49.948;8.472;2023-07-29T07:56:06;86.35;;;4.50;;
4895;SDS011;2463;49.948;8.472;2023-07-29T07:58:33;86.28;;;4.13;;
4895;SDS011;2463;49.948;8.472;2023-07-29T08:01:01;87.63;;;4.53;;
4895;SDS011;2463;49.948;8.472;2023-07-29T08:03:31;86.85;;;4.20;;
4895;SDS011;2463;49.948;8.472;2023-07-29T08:05:58;87.50;;;4.50;;
4895;SDS011;2463;49.948;8.472;2023-07-29T08:08:25;85.28;;;3.90;;
4895;SDS011;2463;49.948;8.472;2023-07-29T08:10:53;87.75;;;5.65;;
4895;SDS011;2463;49.948;8.472;2023-07-29T08:13:21;86.53;;;4.38;;
4895;SDS011;2463;49.948;8.472;2023-07-29T08:15:48;86.60;;;4.55;;
4895;SDS011;2463;49.948;8.472;2023-07-29T08:18:18;85.40;;;3.88;;
4895;SDS011;2463;49.948;8.472;2023-07-29T08:20:51;84.82;;;3.80;;
4895;SDS011;2463;49.948;8.472;2023-07-29T08:23:26;84.80;;;3.40;;
4895;SDS011;2463;49.948;8.472;2023-07-29T08:25:54;83.53;;;3.88;;
4895;SDS011;2463;49.948;8.472;2023-07-29T08:28:22;84.43;;;3.45;;
4895;SDS011;2463;49.948;8.472;2023-07-29T08:30:50;84.95;;;3.60;;
4895;SDS011;2463;49.948;8.472;2023-07-29T08:33:17;83.32;;;3.53;;
4895;SDS011;2463;49.948;8.472;2023-07-29T08:35:43;84.07;;;3.30;;
4895;SDS011;2463;49.948;8.472;2023-07-29T08:38:10;83.32;;;3.20;;
4895;SDS011;2463;49.948;8.472;2023-07-29T08:40:37;82.55;;;3.30;;
4895;SDS011;2463;49.948;8.472;2023-07-29T08:43:11;84.68;;;3.53;;
4895;SDS011;2463;49.948;8.472;2023-07-29T08:45:40;83.32;;;2.88;;
4895;SDS011;2463;49.948;8.472;2023-07-29T08:48:08;85.05;;;3.20;;
4895;SDS011;2463;49.948;8.472;2023-07-29T08:50:37;84.18;;;3.20;;
4895;SDS011;2463;49.948;8.472;2023-07-29T08:53:04;82.90;;;3.10;;
4895;SDS011;2463;49.948;8.472;2023-07-29T08:55:32;84.55;;;3.20;;
4895;SDS011;2463;49.948;8.472;2023-07-29T08:57:59;84.22;;;3.17;;
4895;SDS011;2463;49.948;8.472;2023-07-29T09:00:27;82.72;;;2.90;;
4895;SDS011;2463;49.948;8.472;2023-07-29T09:02:54;83.32;;;3.00;;
4895;SDS011;2463;49.948;8.472;2023-07-29T09:05:21;83.03;;;2.80;;
4895;SDS011;2463;49.948;8.472;2023-07-29T09:07:49;82.50;;;3.10;;
4895;SDS011;2463;49.948;8.472;2023-07-29T09:10:21;82.93;;;3.20;;
4895;SDS011;2463;49.948;8.472;2023-07-29T09:12:49;82.53;;;3.13;;
4895;SDS011;2463;49.948;8.472;2023-07-29T09:15:26;83.03;;;3.05;;
4895;SDS011;2463;49.948;8.472;2023-07-29T09:17:57;82.13;;;2.80;;
4895;SDS011;2463;49.948;8.472;2023-07-29T09:20:28;81.43;;;2.90;;
4895;SDS011;2463;49.948;8.472;2023-07-29T09:22:56;82.53;;;2.90;;
4895;SDS011;2463;49.948;8.472;2023-07-29T09:25:26;81.07;;;2.83;;
4895;SDS011;2463;49.948;8.472;2023-07-29T09:28:00;81.68;;;2.92;;
4895;SDS011;2463;49.948;8.472;2023-07-29T09:30:27;82.30;;;2.97;;
4895;SDS011;2463;49.948;8.472;2023-07-29T09:32:57;81.75;;;2.80;;
4895;SDS011;2463;49.948;8.472;2023-07-29T09:35:28;82.15;;;3.00;;
4895;SDS011;2463;49.948;8.472;2023-07-29T09:37:58;81.87;;;3.00;;
4895;SDS011;2463;49.948;8.472;2023-07-29T09:40:25;85.03;;;3.07;;
4895;SDS011;2463;49.948;8.472;2023-07-29T09:42:52;82.03;;;3.08;;
4895;SDS011;2463;49.948;8.472;2023-07-29T09:47:48;82.65;;;3.10;;
4895;SDS011;2463;49.948;8.472;2023-07-29T09:50:16;82.70;;;3.20;;
4895;SDS011;2463;49.948;8.472;2023-07-29T09:52:43;82.55;;;3.25;;
4895;SDS011;2463;49.948;8.472;2023-07-29T09:55:11;83.38;;;3.30;;
4895;SDS011;2463;49.948;8.472;2023-07-29T09:57:40;82.65;;;3.08;;
4895;SDS011;2463;49.948;8.472;2023-07-29T10:00:07;86.65;;;3.38;;
4895;SDS011;2463;49.948;8.472;2023-07-29T10:02:40;82.80;;;2.92;;
4895;SDS011;2463;49.948;8.472;2023-07-29T10:05:08;82.03;;;3.10;;
4895;SDS011;2463;49.948;8.472;2023-07-29T10:07:36;83.10;;;3.20;;
4895;SDS011;2463;49.948;8.472;2023-07-29T10:10:04;87.13;;;3.20;;
4895;SDS011;2463;49.948;8.472;2023-07-29T10:12:33;83.78;;;3.50;;
4895;SDS011;2463;49.948;8.472;2023-07-29T10:15:02;82.13;;;3.00;;
4895;SDS011;2463;49.948;8.472;2023-07-29T10:17:30;82.40;;;3.10;;
4895;SDS011;2463;49.948;8.472;2023-07-29T10:20:00;82.25;;;3.08;;
4895;SDS011;2463;49.948;8.472;2023-07-29T10:22:28;82.13;;;2.90;;
4895;SDS011;2463;49.948;8.472;2023-07-29T10:25:02;81.53;;;2.73;;
4895;SDS011;2463;49.948;8.472;2023-07-29T10:27:34;81.78;;;2.90;;
4895;SDS011;2463;49.948;8.472;2023-07-29T10:30:10;81.88;;;2.65;;
4895;SDS011;2463;49.948;8.472;2023-07-29T10:32:38;81.20;;;2.77;;
4895;SDS011;2463;49.948;8.472;2023-07-29T10:35:10;82.47;;;2.83;;
4895;SDS011;2463;49.948;8.472;2023-07-29T10:37:40;81.97;;;2.90;;
4895;SDS011;2463;49.948;8.472;2023-07-29T10:40:08;82.22;;;3.00;;
4895;SDS011;2463;49.948;8.472;2023-07-29T10:42:36;82.97;;;3.00;;
4895;SDS011;2463;49.948;8.472;2023-07-29T10:45:23;82.00;;;3.20;;
4895;SDS011;2463;49.948;8.472;2023-07-29T10:47:50;82.68;;;3.08;;
4895;SDS011;2463;49.948;8.472;2023-07-29T10:50:20;82.22;;;2.80;;
4895;SDS011;2463;49.948;8.472;2023-07-29T10:52:49;82.88;;;2.85;;
4895;SDS011;2463;49.948;8.472;2023-07-29T10:55:24;82.30;;;2.87;;
4895;SDS011;2463;49.948;8.472;2023-07-29T10:58:06;81.10;;;2.60;;
4895;SDS011;2463;49.948;8.472;2023-07-29T11:00:33;81.50;;;3.00;;
4895;SDS011;2463;49.948;8.472;2023-07-29T11:03:03;81.40;;;2.80;;
4895;SDS011;2463;49.948;8.472;2023-07-29T11:05:41;80.93;;;2.80;;
4895;SDS011;2463;49.948;8.472;2023-07-29T11:08:19;80.80;;;2.77;;
4895;SDS011;2463;49.948;8.472;2023-07-29T11:11:03;80.93;;;2.80;;
4895;SDS011;2463;49.948;8.472;2023-07-29T11:13:31;80.80;;;2.70;;
4895;SDS011;2463;49.948;8.472;2023-07-29T11:16:00;80.77;;;2.97;;
4895;SDS011;2463;49.948;8.472;2023-07-29T11:18:28;81.05;;;2.60;;
4895;SDS011;2463;49.948;8.472;2023-07-29T11:20:57;81.20;;;2.77;;
4895;SDS011;2463;49.948;8.472;2023-07-29T11:23:28;81.80;;;3.00;;
4895;SDS011;2463;49.948;8.472;2023-07-29T11:25:59;80.90;;;2.90;;
4895;SDS011;2463;49.948;8.472;2023-07-29T11:28:26;81.80;;;3.33;;
4895;SDS011;2463;49.948;8.472;2023-07-29T11:30:54;81.30;;;2.70;;
4895;SDS011;2463;49.948;8.472;2023-07-29T11:33:23;80.57;;;2.80;;
4895;SDS011;2463;49.948;8.472;2023-07-29T11:35:51;80.17;;;2.60;;
4895;SDS011;2463;49.948;8.472;2023-07-29T11:38:19;80.83;;;2.67;;
4895;SDS011;2463;49.948;8.472;2023-07-29T11:40:58;80.97;;;2.63;;
4895;SDS011;2463;49.948;8.472;2023-07-29T11:43:26;79.80;;;2.53;;
4895;SDS011;2463;49.948;8.472;2023-07-29T11:45:53;80.50;;;2.70;;
4895;SDS011;2463;49.948;8.472;2023-07-29T11:48:27;80.20;;;2.60;;
4895;SDS011;2463;49.948;8.472;2023-07-29T11:50:54;79.90;;;2.40;;
4895;SDS011;2463;49.948;8.472;2023-07-29T11:53:21;79.50;;;2.30;;
4895;SDS011;2463;49.948;8.472;2023-07-29T11:55:51;79.80;;;2.60;;
4895;SDS011;2463;49.948;8.472;2023-07-29T11:58:21;79.77;;;2.70;;
4895;SDS011;2463;49.948;8.472;2023-07-29T12:00:48;81.43;;;2.80;;
4895;SDS011;2463;49.948;8.472;2023-07-29T12:03:15;79.60;;;2.57;;
4895;SDS011;2463;49.948;8.472;2023-07-29T12:05:44;83.30;;;2.80;;
4895;SDS011;2463;49.948;8.472;2023-07-29T12:08:11;79.50;;;2.53;;
4895;SDS011;2463;49.948;8.472;2023-07-29T12:10:38;79.57;;;2.50;;
4895;SDS011;2463;49.948;8.472;2023-07-29T12:13:05;79.70;;;2.57;;
4895;SDS011;2463;49.948;8.472;2023-07-29T12:15:34;80.17;;;2.50;;
4895;SDS011;2463;49.948;8.472;2023-07-29T12:18:01;79.90;;;2.77;;
4895;SDS011;2463;49.948;8.472;2023-07-29T12:20:29;79.50;;;2.50;;
4895;SDS011;2463;49.948;8.472;2023-07-29T12:22:57;79.70;;;2.30;;
4895;SDS011;2463;49.948;8.472;2023-07-29T12:25:26;80.87;;;2.97;;
4895;SDS011;2463;49.948;8.472;2023-07-29T12:27:53;79.57;;;2.50;;
4895;SDS011;2463;49.948;8.472;2023-07-29T12:30:20;79.37;;;2.27;;
4895;SDS011;2463;49.948;8.472;2023-07-29T12:32:48;79.00;;;2.40;;
4895;SDS011;2463;49.948;8.472;2023-07-29T12:35:15;80.37;;;2.40;;
4895;SDS011;2463;49.948;8.472;2023-07-29T12:37:42;79.83;;;2.80;;
4895;SDS011;2463;49.948;8.472;2023-07-29T12:42:49;78.80;;;2.30;;
4895;SDS011;2463;49.948;8.472;2023-07-29T12:45:17;79.17;;;2.67;;
4895;SDS011;2463;49.948;8.472;2023-07-29T12:47:44;78.60;;;2.20;;
4895;SDS011;2463;49.948;8.472;2023-07-29T12:50:11;79.10;;;2.30;;
4895;SDS011;2463;49.948;8.472;2023-07-29T12:52:38;79.17;;;2.60;;
4895;SDS011;2463;49.948;8.472;2023-07-29T12:55:05;78.77;;;2.10;;
4895;SDS011;2463;49.948;8.472;2023-07-29T12:57:35;78.70;;;2.20;;
4895;SDS011;2463;49.948;8.472;2023-07-29T13:00:03;78.87;;;2.13;;
4895;SDS011;2463;49.948;8.472;2023-07-29T13:02:31;78.63;;;2.40;;
4895;SDS011;2463;49.948;8.472;2023-07-29T13:04:58;79.17;;;2.20;;
4895;SDS011;2463;49.948;8.472;2023-07-29T13:07:25;78.87;;;2.40;;
4895;SDS011;2463;49.948;8.472;2023-07-29T13:09:51;80.13;;;2.60;;
4895;SDS011;2463;49.948;8.472;2023-07-29T13:12:18;79.10;;;2.60;;
4895;SDS011;2463;49.948;8.472;2023-07-29T13:14:45;79.37;;;2.50;;
4895;SDS011;2463;49.948;8.472;2023-07-29T13:17:12;79.20;;;2.40;;
4895;SDS011;2463;49.948;8.472;2023-07-29T13:19:38;78.97;;;2.47;;
4895;SDS011;2463;49.948;8.472;2023-07-29T13:22:05;79.23;;;2.30;;
4895;SDS011;2463;49.948;8.472;2023-07-29T13:24:32;79.17;;;2.23;;
4895;SDS011;2463;49.948;8.472;2023-07-29T13:26:58;79.70;;;2.63;;
4895;SDS011;2463;49.948;8.472;2023-07-29T13:29:25;79.47;;;2.83;;
4895;SDS011;2463;49.948;8.472;2023-07-29T13:31:52;78.60;;;2.27;;
4895;SDS011;2463;49.948;8.472;2023-07-29T13:34:19;79.60;;;2.43;;
4895;SDS011;2463;49.948;8.472;2023-07-29T13:36:45;78.87;;;2.40;;
4895;SDS011;2463;49.948;8.472;2023-07-29T13:39:12;78.57;;;2.33;;
4895;SDS011;2463;49.948;8.472;2023-07-29T13:41:39;78.77;;;2.27;;
4895;SDS011;2463;49.948;8.472;2023-07-29T13:44:05;79.20;;;2.27;;
4895;SDS011;2463;49.948;8.472;2023-07-29T13:46:32;79.20;;;2.70;;
4895;SDS011;2463;49.948;8.472;2023-07-29T13:48:59;79.13;;;2.57;;
4895;SDS011;2463;49.948;8.472;2023-07-29T13:51:25;79.57;;;2.50;;
4895;SDS011;2463;49.948;8.472;2023-07-29T13:53:52;79.07;;;2.47;;
4895;SDS011;2463;49.948;8.472;2023-07-29T13:56:19;78.87;;;2.23;;
4895;SDS011;2463;49.948;8.472;2023-07-29T13:58:45;79.67;;;2.40;;
4895;SDS011;2463;49.948;8.472;2023-07-29T14:01:12;78.43;;;2.27;;
4895;SDS011;2463;49.948;8.472;2023-07-29T14:03:39;78.87;;;2.47;;
4895;SDS011;2463;49.948;8.472;2023-07-29T14:06:06;79.10;;;2.30;;
4895;SDS011;2463;49.948;8.472;2023-07-29T14:08:33;78.10;;;2.13;;
4895;SDS011;2463;49.948;8.472;2023-07-29T14:11:01;78.80;;;2.17;;
4895;SDS011;2463;49.948;8.472;2023-07-29T14:13:28;78.87;;;2.33;;
4895;SDS011;2463;49.948;8.472;2023-07-29T14:15:54;80.03;;;2.23;;
4895;SDS011;2463;49.948;8.472;2023-07-29T14:18:21;78.97;;;2.30;;
4895;SDS011;2463;49.948;8.472;2023-07-29T14:20:48;80.57;;;2.70;;
4895;SDS011;2463;49.948;8.472;2023-07-29T14:23:17;80.10;;;2.57;;
4895;SDS011;2463;49.948;8.472;2023-07-29T14:25:44;79.57;;;2.27;;
4895;SDS011;2463;49.948;8.472;2023-07-29T14:28:12;78.93;;;2.30;;
4895;SDS011;2463;49.948;8.472;2023-07-29T14:30:40;79.63;;;2.33;;
4895;SDS011;2463;49.948;8.472;2023-07-29T14:33:07;79.40;;;2.43;;
4895;SDS011;2463;49.948;8.472;2023-07-29T14:35:34;78.70;;;2.47;;
4895;SDS011;2463;49.948;8.472;2023-07-29T14:38:00;78.93;;;2.27;;
4895;SDS011;2463;49.948;8.472;2023-07-29T14:40:27;79.07;;;2.50;;
4895;SDS011;2463;49.948;8.472;2023-07-29T14:42:54;78.87;;;2.40;;
4895;SDS011;2463;49.948;8.472;2023-07-29T14:45:20;78.90;;;2.63;;
4895;SDS011;2463;49.948;8.472;2023-07-29T14:47:47;80.00;;;2.60;;
4895;SDS011;2463;49.948;8.472;2023-07-29T14:50:14;79.00;;;2.50;;
4895;SDS011;2463;49.948;8.472;2023-07-29T14:52:41;79.57;;;2.70;;
4895;SDS011;2463;49.948;8.472;2023-07-29T14:55:07;79.23;;;2.40;;
4895;SDS011;2463;49.948;8.472;2023-07-29T14:57:35;79.67;;;2.20;;
4895;SDS011;2463;49.948;8.472;2023-07-29T15:00:01;79.57;;;2.40;;
4895;SDS011;2463;49.948;8.472;2023-07-29T15:02:29;79.10;;;2.43;;
4895;SDS011;2463;49.948;8.472;2023-07-29T15:04:56;80.80;;;2.80;;
4895;SDS011;2463;49.948;8.472;2023-07-29T15:07:23;80.57;;;2.90;;
4895;SDS011;2463;49.948;8.472;2023-07-29T15:09:50;80.07;;;2.67;;
4895;SDS011;2463;49.948;8.472;2023-07-29T15:12:16;85.80;;;3.10;;